sensor_id;sensor_type;location;lat;lon;timestamp;pressure;altitude;pressure_sealevel;temperature;humidity
47753;BME280;2038;51.728;6.674;2023-04-01T00:01:06;98550.66;;;11.77;100.00
47753;BME280;2038;51.728;6.674;2023-04-01T00:03:32;98542.66;;;11.65;100.00
47753;BME280;2038;51.728;6.674;2023-04-01T00:06:00;98545.38;;;11.71;100.00
47753;BME280;2038;51.728;6.674;2023-04-01T00:08:27;98544.31;;;11.63;100.00
47753;BME280;2038;51.728;6.674;2023-04-01T00:10:54;98546.69;;;11.57;100.00
47753;BME280;2038;51.728;6.674;2023-04-01T00:13:28;98550.25;;;11.62;100.00
47753;BME280;2038;51.728;6.674;2023-04-01T00:15:55;98539.06;;;11.57;100.00
47753;BME280;2038;51.728;6.674;2023-04-01T00:18:22;98537.38;;;11.57;100.00
47753;BME280;2038;51.728;6.674;2023-04-01T00:20:51;98536.50;;;11.57;100.00
47753;BME280;2038;51.728;6.674;2023-04-01T00:23:18;98538.31;;;11.61;100.00
47753;BME280;2038;51.728;6.674;2023-04-01T00:25:46;98540.91;;;11.62;100.00
47753;BME280;2038;51.728;6.674;2023-04-01T00:28:17;98534.13;;;11.64;100.00
47753;BME280;2038;51.728;6.674;2023-04-01T00:30:44;98540.66;;;11.53;100.00
47753;BME280;2038;51.728;6.674;2023-04-01T00:33:13;98538.38;;;11.64;100.00
47753;BME280;2038;51.728;6.674;2023-04-01T00:35:55;98535.06;;;11.66;100.00
47753;BME280;2038;51.728;6.674;2023-04-01T00:38:21;98540.00;;;11.60;100.00
47753;BME280;2038;51.728;6.674;2023-04-01T00:40:49;98543.47;;;11.64;100.00
47753;BME280;2038;51.728;6.674;2023-04-01T00:43:24;98534.03;;;11.60;100.00
47753;BME280;2038;51.728;6.674;2023-04-01T00:45:50;98522.25;;;11.65;100.00
47753;BME280;2038;51.728;6.674;2023-04-01T00:48:19;98534.00;;;11.58;100.00
47753;BME280;2038;51.728;6.674;2023-04-01T00:51:27;98532.19;;;11.54;100.00
47753;BME280;2038;51.728;6.674;2023-04-01T00:53:59;98529.88;;;11.63;100.00
47753;BME280;2038;51.728;6.674;2023-04-01T00:59:52;98525.75;;;11.68;100.00
47753;BME280;2038;51.728;6.674;2023-04-01T01:02:23;98530.81;;;11.67;100.00
47753;BME280;2038;51.728;6.674;2023-04-01T01:04:53;98527.34;;;11.65;100.00
47753;BME280;2038;51.728;6.674;2023-04-01T01:07:37;98529.78;;;11.60;100.00
47753;BME280;2038;51.728;6.674;2023-04-01T01:10:40;98527.16;;;11.57;100.00
47753;BME280;2038;51.728;6.674;2023-04-01T01:13:36;98521.06;;;11.51;100.00
47753;BME280;2038;51.728;6.674;2023-04-01T01:16:25;98520.22;;;11.52;100.00
47753;BME280;2038;51.728;6.674;2023-04-01T01:22:21;98520.00;;;11.43;100.00
47753;BME280;2038;51.728;6.674;2023-04-01T01:25:08;98531.63;;;11.33;100.00
47753;BME280;2038;51.728;6.674;2023-04-01T01:28:24;98519.25;;;11.47;100.00
47753;BME280;2038;51.728;6.674;2023-04-01T01:34:25;98520.63;;;11.36;100.00
47753;BME280;2038;51.728;6.674;2023-04-01T01:37:01;98513.91;;;11.38;100.00
47753;BME280;2038;51.728;6.674;2023-04-01T01:39:34;98522.63;;;11.46;100.00
47753;BME280;2038;51.728;6.674;2023-04-01T01:42:05;98519.94;;;11.41;100.00
47753;BME280;2038;51.728;6.674;2023-04-01T01:44:36;98510.44;;;11.36;100.00
47753;BME280;2038;51.728;6.674;2023-04-01T01:47:06;98510.97;;;11.55;100.00
47753;BME280;2038;51.728;6.674;2023-04-01T01:49:36;98522.66;;;11.47;100.00
47753;BME280;2038;51.728;6.674;2023-04-01T01:52:08;98532.25;;;11.57;100.00
47753;BME280;2038;51.728;6.674;2023-04-01T01:54:47;98521.38;;;11.64;100.00
47753;BME280;2038;51.728;6.674;2023-04-01T01:57:15;98517.97;;;11.64;100.00
47753;BME280;2038;51.728;6.674;2023-04-01T01:59:45;98521.44;;;11.67;100.00
47753;BME280;2038;51.728;6.674;2023-04-01T02:02:15;98532.03;;;11.81;100.00
47753;BME280;2038;51.728;6.674;2023-04-01T02:04:44;98527.22;;;11.59;100.00
47753;BME280;2038;51.728;6.674;2023-04-01T02:07:22;98529.66;;;11.56;100.00
47753;BME280;2038;51.728;6.674;2023-04-01T02:09:56;98531.94;;;11.45;100.00
47753;BME280;2038;51.728;6.674;2023-04-01T02:12:26;98531.25;;;11.51;100.00
47753;BME280;2038;51.728;6.674;2023-04-01T02:15:08;98531.13;;;11.46;100.00
47753;BME280;2038;51.728;6.674;2023-04-01T02:17:43;98535.41;;;11.47;100.00
47753;BME280;2038;51.728;6.674;2023-04-01T02:20:18;98535.81;;;11.62;100.00
47753;BME280;2038;51.728;6.674;2023-04-01T02:22:53;98538.38;;;11.64;100.00
47753;BME280;2038;51.728;6.674;2023-04-01T02:25:30;98541.31;;;11.78;100.00
47753;BME280;2038;51.728;6.674;2023-04-01T02:28:06;98538.50;;;11.68;100.00
47753;BME280;2038;51.728;6.674;2023-04-01T02:30:40;98535.81;;;11.62;100.00
47753;BME280;2038;51.728;6.674;2023-04-01T02:33:11;98543.75;;;11.73;100.00
47753;BME280;2038;51.728;6.674;2023-04-01T02:35:40;98538.69;;;11.75;100.00
47753;BME280;2038;51.728;6.674;2023-04-01T02:38:09;98542.78;;;11.69;100.00
47753;BME280;2038;51.728;6.674;2023-04-01T02:40:50;98548.84;;;11.73;100.00
47753;BME280;2038;51.728;6.674;2023-04-01T02:43:22;98541.84;;;11.66;100.00
47753;BME280;2038;51.728;6.674;2023-04-01T02:45:48;98542.47;;;11.57;100.00
47753;BME280;2038;51.728;6.674;2023-04-01T02:48:15;98548.56;;;11.62;100.00
47753;BME280;2038;51.728;6.674;2023-04-01T02:50:41;98550.31;;;11.65;100.00
47753;BME280;2038;51.728;6.674;2023-04-01T02:53:07;98556.16;;;11.59;100.00
47753;BME280;2038;51.728;6.674;2023-04-01T02:55:34;98555.81;;;11.47;100.00
47753;BME280;2038;51.728;6.674;2023-04-01T02:58:00;98556.72;;;11.49;100.00
47753;BME280;2038;51.728;6.674;2023-04-01T03:00:27;98558.56;;;11.55;100.00
47753;BME280;2038;51.728;6.674;2023-04-01T03:02:53;98555.91;;;11.52;100.00
47753;BME280;2038;51.728;6.674;2023-04-01T03:05:20;98557.78;;;11.57;100.00
47753;BME280;2038;51.728;6.674;2023-04-01T03:07:47;98562.19;;;11.64;100.00
47753;BME280;2038;51.728;6.674;2023-04-01T03:10:13;98559.72;;;11.67;100.00
47753;BME280;2038;51.728;6.674;2023-04-01T03:12:40;98568.22;;;11.66;100.00
47753;BME280;2038;51.728;6.674;2023-04-01T03:15:08;98567.16;;;11.58;100.00
47753;BME280;2038;51.728;6.674;2023-04-01T03:17:37;98571.53;;;11.64;100.00
47753;BME280;2038;51.728;6.674;2023-04-01T03:20:04;98572.41;;;11.64;100.00
47753;BME280;2038;51.728;6.674;2023-04-01T03:22:31;98568.25;;;11.68;100.00
47753;BME280;2038;51.728;6.674;2023-04-01T03:24:58;98568.53;;;11.46;100.00
47753;BME280;2038;51.728;6.674;2023-04-01T03:27:24;98570.47;;;11.54;100.00
47753;BME280;2038;51.728;6.674;2023-04-01T03:29:50;98576.25;;;11.49;100.00
47753;BME280;2038;51.728;6.674;2023-04-01T03:32:16;98584.53;;;11.71;100.00
47753;BME280;2038;51.728;6.674;2023-04-01T03:34:42;98580.66;;;11.54;100.00
47753;BME280;2038;51.728;6.674;2023-04-01T03:37:09;98583.56;;;11.68;100.00
47753;BME280;2038;51.728;6.674;2023-04-01T03:39:35;98585.34;;;11.70;100.00
47753;BME280;2038;51.728;6.674;2023-04-01T03:42:01;98585.22;;;11.67;100.00
47753;BME280;2038;51.728;6.674;2023-04-01T03:44:31;98576.63;;;11.62;100.00
47753;BME280;2038;51.728;6.674;2023-04-01T03:47:01;98583.66;;;11.71;100.00
47753;BME280;2038;51.728;6.674;2023-04-01T03:49:27;98587.44;;;11.54;100.00
47753;BME280;2038;51.728;6.674;2023-04-01T03:51:53;98592.00;;;11.65;100.00
47753;BME280;2038;51.728;6.674;2023-04-01T03:54:20;98584.28;;;11.64;100.00
47753;BME280;2038;51.728;6.674;2023-04-01T03:56:47;98588.13;;;11.78;100.00
47753;BME280;2038;51.728;6.674;2023-04-01T03:59:13;98588.88;;;11.74;100.00
47753;BME280;2038;51.728;6.674;2023-04-01T04:01:39;98590.25;;;11.64;100.00
47753;BME280;2038;51.728;6.674;2023-04-01T04:04:06;98589.50;;;11.67;100.00
47753;BME280;2038;51.728;6.674;2023-04-01T04:06:33;98596.22;;;11.63;100.00
47753;BME280;2038;51.728;6.674;2023-04-01T04:08:59;98597.22;;;11.70;100.00
47753;BME280;2038;51.728;6.674;2023-04-01T04:11:25;98594.59;;;11.67;100.00
47753;BME280;2038;51.728;6.674;2023-04-01T04:13:51;98604.63;;;11.61;100.00
47753;BME280;2038;51.728;6.674;2023-04-01T04:16:18;98596.84;;;11.55;100.00
47753;BME280;2038;51.728;6.674;2023-04-01T04:18:44;98596.72;;;11.52;100.00
47753;BME280;2038;51.728;6.674;2023-04-01T04:21:16;98609.16;;;11.71;100.00
47753;BME280;2038;51.728;6.674;2023-04-01T04:23:43;98594.50;;;11.64;100.00
47753;BME280;2038;51.728;6.674;2023-04-01T04:26:12;98600.53;;;11.66;100.00
47753;BME280;2038;51.728;6.674;2023-04-01T04:28:39;98603.88;;;11.65;100.00
47753;BME280;2038;51.728;6.674;2023-04-01T04:31:06;98605.69;;;11.69;100.00
47753;BME280;2038;51.728;6.674;2023-04-01T04:33:34;98606.75;;;11.76;100.00
47753;BME280;2038;51.728;6.674;2023-04-01T04:36:01;98607.66;;;11.78;100.00
47753;BME280;2038;51.728;6.674;2023-04-01T04:38:29;98607.63;;;11.76;100.00
47753;BME280;2038;51.728;6.674;2023-04-01T04:40:56;98610.91;;;11.72;100.00
47753;BME280;2038;51.728;6.674;2023-04-01T04:43:22;98607.81;;;11.84;100.00
47753;BME280;2038;51.728;6.674;2023-04-01T04:45:48;98613.47;;;11.72;100.00
47753;BME280;2038;51.728;6.674;2023-04-01T04:48:16;98609.59;;;11.56;100.00
47753;BME280;2038;51.728;6.674;2023-04-01T04:50:46;98623.44;;;11.64;100.00
47753;BME280;2038;51.728;6.674;2023-04-01T04:53:18;98621.31;;;11.80;100.00
47753;BME280;2038;51.728;6.674;2023-04-01T04:55:49;98618.06;;;11.85;100.00
47753;BME280;2038;51.728;6.674;2023-04-01T04:58:16;98618.00;;;11.82;100.00
47753;BME280;2038;51.728;6.674;2023-04-01T05:00:44;98622.06;;;11.76;100.00
47753;BME280;2038;51.728;6.674;2023-04-01T05:03:13;98624.91;;;11.86;100.00
47753;BME280;2038;51.728;6.674;2023-04-01T05:05:47;98623.66;;;11.72;100.00
47753;BME280;2038;51.728;6.674;2023-04-01T05:08:16;98623.78;;;11.77;100.00
47753;BME280;2038;51.728;6.674;2023-04-01T05:10:42;98620.88;;;11.64;100.00
47753;BME280;2038;51.728;6.674;2023-04-01T05:13:11;98627.03;;;11.71;100.00
47753;BME280;2038;51.728;6.674;2023-04-01T05:15:39;98630.50;;;11.73;100.00
47753;BME280;2038;51.728;6.674;2023-04-01T05:18:05;98641.63;;;11.75;100.00
47753;BME280;2038;51.728;6.674;2023-04-01T05:20:32;98632.19;;;11.72;100.00
47753;BME280;2038;51.728;6.674;2023-04-01T05:23:00;98633.50;;;11.60;100.00
47753;BME280;2038;51.728;6.674;2023-04-01T05:25:27;98637.78;;;11.59;100.00
47753;BME280;2038;51.728;6.674;2023-04-01T05:27:53;98635.44;;;11.67;100.00
47753;BME280;2038;51.728;6.674;2023-04-01T05:30:20;98641.66;;;11.77;100.00
47753;BME280;2038;51.728;6.674;2023-04-01T05:32:46;98632.75;;;11.64;100.00
47753;BME280;2038;51.728;6.674;2023-04-01T05:35:12;98643.63;;;11.57;100.00
47753;BME280;2038;51.728;6.674;2023-04-01T05:37:38;98638.75;;;11.64;100.00
47753;BME280;2038;51.728;6.674;2023-04-01T05:40:05;98636.06;;;11.60;100.00
47753;BME280;2038;51.728;6.674;2023-04-01T05:42:33;98647.19;;;11.62;100.00
47753;BME280;2038;51.728;6.674;2023-04-01T05:45:00;98647.44;;;11.71;100.00
47753;BME280;2038;51.728;6.674;2023-04-01T05:47:26;98650.53;;;11.59;100.00
47753;BME280;2038;51.728;6.674;2023-04-01T05:49:52;98647.09;;;11.59;100.00
47753;BME280;2038;51.728;6.674;2023-04-01T05:52:18;98644.78;;;11.68;100.00
47753;BME280;2038;51.728;6.674;2023-04-01T05:54:46;98645.31;;;11.56;100.00
47753;BME280;2038;51.728;6.674;2023-04-01T05:57:12;98644.84;;;11.69;100.00
47753;BME280;2038;51.728;6.674;2023-04-01T05:59:38;98654.28;;;11.72;100.00
47753;BME280;2038;51.728;6.674;2023-04-01T06:02:04;98646.09;;;11.84;100.00
47753;BME280;2038;51.728;6.674;2023-04-01T06:04:39;98653.34;;;11.70;100.00
47753;BME280;2038;51.728;6.674;2023-04-01T06:07:15;98653.34;;;11.70;100.00
47753;BME280;2038;51.728;6.674;2023-04-01T06:09:44;98655.16;;;11.72;100.00
47753;BME280;2038;51.728;6.674;2023-04-01T06:12:29;98657.16;;;11.83;100.00
47753;BME280;2038;51.728;6.674;2023-04-01T06:15:32;98664.06;;;11.88;100.00
47753;BME280;2038;51.728;6.674;2023-04-01T06:19:12;98656.19;;;11.79;100.00
47753;BME280;2038;51.728;6.674;2023-04-01T06:27:36;98670.59;;;11.77;100.00
47753;BME280;2038;51.728;6.674;2023-04-01T06:33:29;98670.63;;;11.79;100.00
47753;BME280;2038;51.728;6.674;2023-04-01T06:39:49;98668.97;;;11.79;100.00
47753;BME280;2038;51.728;6.674;2023-04-01T06:43:19;98676.56;;;11.78;100.00
47753;BME280;2038;51.728;6.674;2023-04-01T06:46:31;98676.31;;;11.70;100.00
47753;BME280;2038;51.728;6.674;2023-04-01T06:55:49;98674.69;;;11.72;100.00
47753;BME280;2038;51.728;6.674;2023-04-01T06:58:26;98684.16;;;11.76;100.00
47753;BME280;2038;51.728;6.674;2023-04-01T07:01:04;98682.91;;;11.62;100.00
47753;BME280;2038;51.728;6.674;2023-04-01T07:03:44;98688.75;;;11.58;100.00
47753;BME280;2038;51.728;6.674;2023-04-01T07:09:05;98680.88;;;11.80;100.00
47753;BME280;2038;51.728;6.674;2023-04-01T07:11:38;98684.84;;;11.70;100.00
47753;BME280;2038;51.728;6.674;2023-04-01T07:14:24;98687.28;;;11.67;100.00
47753;BME280;2038;51.728;6.674;2023-04-01T07:17:16;98694.38;;;11.76;100.00
47753;BME280;2038;51.728;6.674;2023-04-01T07:20:23;98695.72;;;11.65;100.00
47753;BME280;2038;51.728;6.674;2023-04-01T07:23:02;98708.34;;;11.59;100.00
47753;BME280;2038;51.728;6.674;2023-04-01T07:25:46;98709.88;;;11.54;100.00
47753;BME280;2038;51.728;6.674;2023-04-01T07:28:16;98709.94;;;11.55;100.00
47753;BME280;2038;51.728;6.674;2023-04-01T07:30:52;98710.56;;;11.48;100.00
47753;BME280;2038;51.728;6.674;2023-04-01T07:33:44;98707.75;;;11.69;100.00
47753;BME280;2038;51.728;6.674;2023-04-01T07:36:56;98725.25;;;11.57;100.00
47753;BME280;2038;51.728;6.674;2023-04-01T07:43:26;98730.78;;;11.70;100.00
47753;BME280;2038;51.728;6.674;2023-04-01T07:46:27;98734.31;;;11.76;100.00
47753;BME280;2038;51.728;6.674;2023-04-01T07:49:16;98740.72;;;11.61;100.00
47753;BME280;2038;51.728;6.674;2023-04-01T07:55:04;98734.13;;;11.69;100.00
47753;BME280;2038;51.728;6.674;2023-04-01T08:03:56;98747.97;;;11.76;100.00
47753;BME280;2038;51.728;6.674;2023-04-01T08:10:17;98759.13;;;11.80;100.00
47753;BME280;2038;51.728;6.674;2023-04-01T08:13:36;98767.16;;;11.63;100.00
47753;BME280;2038;51.728;6.674;2023-04-01T08:16:34;98773.19;;;11.67;100.00
47753;BME280;2038;51.728;6.674;2023-04-01T08:19:56;98772.97;;;11.59;100.00
47753;BME280;2038;51.728;6.674;2023-04-01T08:22:56;98780.63;;;11.59;100.00
47753;BME280;2038;51.728;6.674;2023-04-01T08:25:28;98775.69;;;11.65;100.00
47753;BME280;2038;51.728;6.674;2023-04-01T08:28:16;98780.00;;;11.68;100.00
47753;BME280;2038;51.728;6.674;2023-04-01T08:33:53;98789.84;;;11.83;100.00
47753;BME280;2038;51.728;6.674;2023-04-01T08:36:22;98785.56;;;11.82;100.00
47753;BME280;2038;51.728;6.674;2023-04-01T08:39:02;98801.13;;;11.91;100.00
47753;BME280;2038;51.728;6.674;2023-04-01T08:42:12;98805.72;;;12.02;100.00
47753;BME280;2038;51.728;6.674;2023-04-01T08:47:54;98806.63;;;12.04;100.00
47753;BME280;2038;51.728;6.674;2023-04-01T08:51:03;98817.91;;;12.12;100.00
47753;BME280;2038;51.728;6.674;2023-04-01T08:54:12;98815.28;;;12.09;100.00
47753;BME280;2038;51.728;6.674;2023-04-01T09:00:30;98821.06;;;12.04;100.00
47753;BME280;2038;51.728;6.674;2023-04-01T09:03:31;98832.25;;;12.07;100.00
47753;BME280;2038;51.728;6.674;2023-04-01T09:06:37;98829.72;;;12.07;100.00
47753;BME280;2038;51.728;6.674;2023-04-01T09:09:49;98843.66;;;12.20;100.00
47753;BME280;2038;51.728;6.674;2023-04-01T09:13:05;98850.44;;;12.18;100.00
47753;BME280;2038;51.728;6.674;2023-04-01T09:19:05;98849.63;;;12.20;100.00
47753;BME280;2038;51.728;6.674;2023-04-01T09:28:18;98860.59;;;12.46;100.00
47753;BME280;2038;51.728;6.674;2023-04-01T09:31:08;98875.44;;;12.59;100.00
47753;BME280;2038;51.728;6.674;2023-04-01T09:43:27;98878.22;;;12.68;100.00
47753;BME280;2038;51.728;6.674;2023-04-01T10:03:54;98912.66;;;12.81;100.00
47753;BME280;2038;51.728;6.674;2023-04-01T10:10:37;98915.31;;;12.86;100.00
47753;BME280;2038;51.728;6.674;2023-04-01T10:19:24;98919.59;;;13.51;100.00
47753;BME280;2038;51.728;6.674;2023-04-01T10:25:36;98919.41;;;13.43;100.00
47753;BME280;2038;51.728;6.674;2023-04-01T10:28:42;98929.22;;;13.61;100.00
47753;BME280;2038;51.728;6.674;2023-04-01T10:40:53;98930.88;;;13.25;100.00
47753;BME280;2038;51.728;6.674;2023-04-01T10:59:27;98949.31;;;13.11;100.00
47753;BME280;2038;51.728;6.674;2023-04-01T11:11:58;98956.44;;;12.93;100.00
47753;BME280;2038;51.728;6.674;2023-04-01T11:26:20;98970.53;;;13.42;100.00
47753;BME280;2038;51.728;6.674;2023-04-01T11:38:44;98993.63;;;13.12;100.00
47753;BME280;2038;51.728;6.674;2023-04-01T11:44:29;98990.75;;;13.31;100.00
47753;BME280;2038;51.728;6.674;2023-04-01T11:55:54;99031.75;;;13.04;100.00
47753;BME280;2038;51.728;6.674;2023-04-01T11:58:48;99035.75;;;12.95;100.00
47753;BME280;2038;51.728;6.674;2023-04-01T12:01:42;99037.25;;;12.88;100.00
47753;BME280;2038;51.728;6.674;2023-04-01T12:04:58;99042.13;;;12.81;100.00
47753;BME280;2038;51.728;6.674;2023-04-01T12:08:02;99034.22;;;12.72;100.00
47753;BME280;2038;51.728;6.674;2023-04-01T12:25:14;99064.34;;;12.53;100.00
47753;BME280;2038;51.728;6.674;2023-04-01T12:30:46;99059.88;;;12.46;100.00
47753;BME280;2038;51.728;6.674;2023-04-01T12:34:07;99063.91;;;12.40;100.00
47753;BME280;2038;51.728;6.674;2023-04-01T12:37:12;99065.47;;;12.35;100.00
47753;BME280;2038;51.728;6.674;2023-04-01T12:53:28;99077.91;;;12.51;100.00
47753;BME280;2038;51.728;6.674;2023-04-01T12:57:01;99093.41;;;12.57;100.00
47753;BME280;2038;51.728;6.674;2023-04-01T13:00:44;99102.50;;;12.49;100.00
47753;BME280;2038;51.728;6.674;2023-04-01T13:10:10;99116.47;;;12.58;100.00
47753;BME280;2038;51.728;6.674;2023-04-01T13:16:37;99115.44;;;12.53;100.00
47753;BME280;2038;51.728;6.674;2023-04-01T13:19:30;99129.38;;;12.63;100.00
47753;BME280;2038;51.728;6.674;2023-04-01T13:22:33;99126.81;;;12.63;100.00
47753;BME280;2038;51.728;6.674;2023-04-01T13:28:38;99133.66;;;12.64;100.00
47753;BME280;2038;51.728;6.674;2023-04-01T13:31:50;99141.38;;;12.65;100.00
47753;BME280;2038;51.728;6.674;2023-04-01T13:41:22;99152.41;;;12.64;100.00
47753;BME280;2038;51.728;6.674;2023-04-01T13:44:38;99155.94;;;12.68;100.00
47753;BME280;2038;51.728;6.674;2023-04-01T13:48:10;99158.44;;;12.66;100.00
47753;BME280;2038;51.728;6.674;2023-04-01T13:54:16;99155.03;;;12.66;100.00
47753;BME280;2038;51.728;6.674;2023-04-01T14:03:27;99163.03;;;13.05;100.00
47753;BME280;2038;51.728;6.674;2023-04-01T14:06:38;99171.09;;;13.17;100.00
47753;BME280;2038;51.728;6.674;2023-04-01T14:09:33;99169.34;;;13.15;100.00
47753;BME280;2038;51.728;6.674;2023-04-01T14:12:29;99167.41;;;13.09;100.00
47753;BME280;2038;51.728;6.674;2023-04-01T14:21:41;99183.38;;;13.29;100.00
47753;BME280;2038;51.728;6.674;2023-04-01T14:24:45;99183.81;;;13.42;100.00
47753;BME280;2038;51.728;6.674;2023-04-01T14:27:40;99173.34;;;13.35;100.00
47753;BME280;2038;51.728;6.674;2023-04-01T14:30:33;99187.66;;;13.01;100.00
47753;BME280;2038;51.728;6.674;2023-04-01T14:36:43;99181.25;;;13.14;100.00
47753;BME280;2038;51.728;6.674;2023-04-01T14:47:04;99208.94;;;13.27;100.00
47753;BME280;2038;51.728;6.674;2023-04-01T14:49:41;99210.13;;;13.38;100.00
47753;BME280;2038;51.728;6.674;2023-04-01T14:54:55;99212.91;;;13.46;100.00
47753;BME280;2038;51.728;6.674;2023-04-01T15:00:13;99221.50;;;13.48;100.00
47753;BME280;2038;51.728;6.674;2023-04-01T15:02:56;99225.53;;;13.40;100.00
47753;BME280;2038;51.728;6.674;2023-04-01T15:11:52;99231.75;;;13.48;100.00
47753;BME280;2038;51.728;6.674;2023-04-01T15:17:16;99251.22;;;13.44;100.00
47753;BME280;2038;51.728;6.674;2023-04-01T15:26:29;99270.53;;;13.62;100.00
47753;BME280;2038;51.728;6.674;2023-04-01T15:41:14;99284.69;;;13.22;100.00
47753;BME280;2038;51.728;6.674;2023-04-01T15:43:43;99292.44;;;13.25;100.00
47753;BME280;2038;51.728;6.674;2023-04-01T15:49:32;99293.63;;;13.36;100.00
47753;BME280;2038;51.728;6.674;2023-04-01T15:55:37;99302.16;;;13.35;100.00
47753;BME280;2038;51.728;6.674;2023-04-01T16:01:22;99315.28;;;13.46;100.00
47753;BME280;2038;51.728;6.674;2023-04-01T16:07:09;99323.91;;;13.49;100.00
47753;BME280;2038;51.728;6.674;2023-04-01T16:10:16;99321.13;;;13.42;100.00
47753;BME280;2038;51.728;6.674;2023-04-01T16:21:37;99353.94;;;13.55;100.00
47753;BME280;2038;51.728;6.674;2023-04-01T16:24:34;99352.38;;;13.60;100.00
47753;BME280;2038;51.728;6.674;2023-04-01T16:29:55;99351.28;;;13.25;100.00
47753;BME280;2038;51.728;6.674;2023-04-01T16:32:33;99351.59;;;13.34;100.00
47753;BME280;2038;51.728;6.674;2023-04-01T16:43:56;99370.22;;;13.30;100.00
47753;BME280;2038;51.728;6.674;2023-04-01T16:46:40;99375.50;;;13.36;100.00
47753;BME280;2038;51.728;6.674;2023-04-01T16:51:46;99385.78;;;13.63;100.00
47753;BME280;2038;51.728;6.674;2023-04-01T16:54:43;99388.38;;;13.38;100.00
47753;BME280;2038;51.728;6.674;2023-04-01T17:05:58;99403.78;;;13.39;100.00
47753;BME280;2038;51.728;6.674;2023-04-01T17:11:58;99412.91;;;13.31;100.00
47753;BME280;2038;51.728;6.674;2023-04-01T17:14:40;99433.38;;;13.31;100.00
47753;BME280;2038;51.728;6.674;2023-04-01T17:17:51;99441.22;;;13.12;100.00
47753;BME280;2038;51.728;6.674;2023-04-01T17:20:34;99443.66;;;13.09;100.00
47753;BME280;2038;51.728;6.674;2023-04-01T17:23:29;99445.34;;;13.08;100.00
47753;BME280;2038;51.728;6.674;2023-04-01T17:26:13;99454.31;;;13.20;100.00
47753;BME280;2038;51.728;6.674;2023-04-01T17:32:06;99461.13;;;13.21;100.00
47753;BME280;2038;51.728;6.674;2023-04-01T17:34:59;99462.94;;;13.23;100.00
47753;BME280;2038;51.728;6.674;2023-04-01T17:40:53;99473.34;;;13.28;100.00
47753;BME280;2038;51.728;6.674;2023-04-01T17:46:42;99482.56;;;13.24;100.00
47753;BME280;2038;51.728;6.674;2023-04-01T17:49:33;99503.69;;;12.95;100.00
47753;BME280;2038;51.728;6.674;2023-04-01T17:52:26;99512.94;;;12.91;100.00
47753;BME280;2038;51.728;6.674;2023-04-01T18:04:23;99534.09;;;12.65;100.00
47753;BME280;2038;51.728;6.674;2023-04-01T18:18:59;99571.72;;;12.25;100.00
47753;BME280;2038;51.728;6.674;2023-04-01T18:24:54;99589.19;;;12.14;100.00
47753;BME280;2038;51.728;6.674;2023-04-01T18:27:38;99596.66;;;12.09;100.00
47753;BME280;2038;51.728;6.674;2023-04-01T18:30:18;99605.00;;;12.05;100.00
47753;BME280;2038;51.728;6.674;2023-04-01T18:33:06;99605.41;;;12.16;100.00
47753;BME280;2038;51.728;6.674;2023-04-01T18:35:54;99616.41;;;12.13;100.00
47753;BME280;2038;51.728;6.674;2023-04-01T18:38:37;99619.41;;;12.03;100.00
47753;BME280;2038;51.728;6.674;2023-04-01T18:53:27;99650.75;;;12.01;100.00
47753;BME280;2038;51.728;6.674;2023-04-01T18:58:48;99666.44;;;11.89;100.00
47753;BME280;2038;51.728;6.674;2023-04-01T19:01:28;99676.22;;;11.79;100.00
47753;BME280;2038;51.728;6.674;2023-04-01T19:04:23;99676.88;;;11.75;100.00
47753;BME280;2038;51.728;6.674;2023-04-01T19:06:55;99683.91;;;11.80;100.00
47753;BME280;2038;51.728;6.674;2023-04-01T19:09:44;99688.22;;;11.81;100.00
47753;BME280;2038;51.728;6.674;2023-04-01T19:15:22;99705.44;;;11.48;100.00
47753;BME280;2038;51.728;6.674;2023-04-01T19:21:11;99715.72;;;11.50;100.00
47753;BME280;2038;51.728;6.674;2023-04-01T19:26:42;99734.13;;;11.25;100.00
47753;BME280;2038;51.728;6.674;2023-04-01T19:32:28;99748.25;;;11.36;100.00
47753;BME280;2038;51.728;6.674;2023-04-01T19:35:26;99751.19;;;11.26;100.00
47753;BME280;2038;51.728;6.674;2023-04-01T19:38:04;99761.50;;;11.47;100.00
47753;BME280;2038;51.728;6.674;2023-04-01T19:41:04;99756.88;;;11.38;100.00
47753;BME280;2038;51.728;6.674;2023-04-01T19:46:40;99761.03;;;11.01;100.00
47753;BME280;2038;51.728;6.674;2023-04-01T19:49:38;99762.63;;;11.16;100.00
47753;BME280;2038;51.728;6.674;2023-04-01T19:52:26;99776.19;;;11.15;100.00
47753;BME280;2038;51.728;6.674;2023-04-01T19:55:18;99781.56;;;11.04;100.00
47753;BME280;2038;51.728;6.674;2023-04-01T20:00:55;99803.88;;;10.90;100.00
47753;BME280;2038;51.728;6.674;2023-04-01T20:03:59;99805.63;;;10.91;100.00
47753;BME280;2038;51.728;6.674;2023-04-01T20:06:52;99812.59;;;10.77;100.00
47753;BME280;2038;51.728;6.674;2023-04-01T20:09:58;99823.06;;;10.84;100.00
47753;BME280;2038;51.728;6.674;2023-04-01T20:18:00;99839.84;;;10.96;100.00
47753;BME280;2038;51.728;6.674;2023-04-01T20:20:38;99847.13;;;10.89;100.00
47753;BME280;2038;51.728;6.674;2023-04-01T20:23:23;99850.91;;;10.79;100.00
47753;BME280;2038;51.728;6.674;2023-04-01T20:26:02;99856.78;;;10.78;100.00
47753;BME280;2038;51.728;6.674;2023-04-01T20:28:43;99863.75;;;10.98;100.00
47753;BME280;2038;51.728;6.674;2023-04-01T20:31:41;99868.75;;;10.79;100.00
47753;BME280;2038;51.728;6.674;2023-04-01T20:37:28;99884.84;;;10.62;100.00
47753;BME280;2038;51.728;6.674;2023-04-01T20:46:30;99902.28;;;10.22;100.00
47753;BME280;2038;51.728;6.674;2023-04-01T20:49:23;99906.59;;;10.23;100.00
47753;BME280;2038;51.728;6.674;2023-04-01T20:55:19;99914.91;;;10.20;100.00
47753;BME280;2038;51.728;6.674;2023-04-01T20:58:07;99924.22;;;10.20;100.00
47753;BME280;2038;51.728;6.674;2023-04-01T21:01:13;99931.88;;;10.20;100.00
47753;BME280;2038;51.728;6.674;2023-04-01T21:03:57;99939.06;;;10.27;100.00
47753;BME280;2038;51.728;6.674;2023-04-01T21:06:45;99940.25;;;10.33;100.00
47753;BME280;2038;51.728;6.674;2023-04-01T21:14:53;99960.94;;;10.09;100.00
47753;BME280;2038;51.728;6.674;2023-04-01T21:17:48;99961.91;;;10.11;100.00